Date,TemperatureHighF,TemperatureAvgF,TemperatureLowF,DewpointHighF,DewpointAvgF,DewpointLowF,HumidityHigh,HumidityAvg,HumidityLow,PressureMaxIn,PressureMinIn,WindSpeedMaxMPH,WindSpeedAvgMPH,GustSpeedMaxMPH,PrecipitationSumIn
2013-1-1,36.7,30.7,23.8,35.2,29.1,21.5,95,94,91,30.23,30.01,10,3,10,0.00
2013-1-2,39.2,26.4,19.3,27.1,20.9,17.2,93,81,49,30.24,30.15,8,2,8,0.01
2013-1-3,49.0,30.6,16.4,33.0,22.8,13.3,93,75,44,30.41,30.23,7,1,7,0.01
2013-1-4,52.4,34.0,17.1,28.4,22.6,14.0,92,67,34,30.43,30.30,11,2,11,0.00
2013-1-5,44.3,36.8,28.1,34.0,28.7,22.1,93,73,63,30.30,30.15,14,4,16,0.00
2013-1-6,51.5,33.4,21.1,30.9,23.2,15.4,92,69,36,30.35,30.21,10,2,11,0.00
2013-1-7,54.4,37.3,20.9,29.3,24.4,16.2,84,62,37,30.31,30.09,14,4,15,0.00
2013-1-8,59.4,42.9,27.0,45.3,34.3,20.7,95,73,47,30.19,30.03,14,4,14,0.44
2013-1-9,54.4,49.7,46.4,46.4,43.0,37.3,96,79,57,30.32,30.18,24,6,24,0.04
2013-1-10,59.0,50.2,45.7,53.9,46.6,38.8,93,88,64,30.19,29.80,22,8,22,0.17
2013-1-11,67.3,55.6,45.4,46.7,45.0,42.9,92,69,45,29.87,29.72,25,10,25,0.00
2013-1-12,58.5,42.6,27.4,49.9,35.2,24.9,92,77,43,29.96,29.79,18,6,18,0.73
2013-1-13,32.0,22.4,15.5,24.8,18.2,12.4,91,84,68,30.32,29.95,12,4,12,0.00
2013-1-14,67.3,25.0,14.6,53.3,17.7,11.4,89,75,36,30.34,30.28,6,2,8,0.00
2013-1-15,36.7,24.6,15.3,22.6,16.6,12.0,88,74,40,30.28,30.12,8,2,8,0.01
2013-1-16,46.8,28.1,13.3,23.6,17.6,10.4,91,68,36,30.17,30.08,10,2,10,0.02
2013-1-17,52.2,36.0,23.2,33.1,24.9,16.5,85,65,42,30.45,30.17,13,2,13,0.00
2013-1-18,58.7,41.2,22.7,33.3,27.4,18.3,90,61,33,30.47,30.17,17,6,17,0.00
2013-1-19,66.1,49.3,34.2,38.4,32.7,27.5,80,55,36,30.18,30.06,17,6,17,0.00
2013-1-20,66.4,46.6,29.3,37.2,29.0,18.8,86,52,32,30.25,30.10,16,5,16,0.00
2013-1-21,43.2,29.6,21.2,19.2,15.3,12.6,75,57,34,30.37,30.24,12,4,12,0.00
2013-1-22,51.1,32.4,20.3,27.8,20.6,14.0,80,63,40,30.29,30.17,13,3,13,0.00
2013-1-23,66.1,44.4,26.5,44.7,33.7,20.3,87,68,44,30.25,30.12,12,2,12,0.00
2013-1-24,43.6,38.5,35.6,33.9,24.1,18.6,92,57,45,30.29,30.08,15,7,16,0.00
2013-1-25,53.5,38.2,31.0,35.1,30.6,27.5,94,76,46,30.23,30.07,9,2,9,0.00
2013-1-26,63.7,46.3,32.8,29.0,25.6,19.9,81,48,22,30.24,30.10,16,6,16,0.00
2013-1-27,59.9,53.7,45.7,55.8,48.0,28.4,89,81,48,30.11,29.91,24,11,24,0.00
2013-1-28,74.0,66.4,59.9,61.8,60.0,55.6,87,80,65,29.97,29.81,24,11,24,0.00
2013-1-29,68.6,59.4,44.3,62.3,55.4,42.6,96,87,77,29.81,29.48,26,10,26,1.66
2013-1-30,44.6,32.0,20.7,43.3,27.6,17.5,96,84,73,30.04,29.52,22,7,22,0.01
2013-1-31,49.5,29.1,18.0,31.7,20.7,8.5,93,72,47,30.40,29.98,14,4,16,0.02
2013-2-1,47.5,27.2,11.2,19.9,12.4,5.1,83,57,31,30.41,30.13,16,4,16,0.00
2013-2-2,56.3,39.5,24.1,33.3,26.0,17.1,79,60,40,30.24,30.13,11,3,12,0.00
2013-2-3,58.0,45.2,37.1,30.6,26.7,22.1,72,50,28,30.27,29.95,10,4,12,0.00
2013-2-4,64.6,50.6,34.4,47.0,36.4,26.2,81,60,40,29.95,29.82,15,6,17,0.23
2013-2-5,67.7,46.0,29.2,49.5,33.7,25.1,92,67,29,30.05,29.90,12,2,12,0.00
2013-2-6,66.1,50.6,35.6,42.6,36.8,29.2,82,61,41,30.08,29.94,19,7,20,0.00
2013-2-7,56.2,50.8,43.0,52.0,47.1,38.6,93,87,75,30.08,29.86,13,6,14,0.08
2013-2-8,57.2,42.4,32.8,38.6,32.4,28.4,87,70,39,30.27,30.07,12,4,13,0.00
2013-2-9,47.5,40.2,33.3,43.7,33.6,29.4,92,78,51,30.18,29.79,20,9,20,0.18
2013-2-10,62.6,52.8,38.5,51.7,38.2,26.0,94,62,31,30.04,29.63,23,10,23,0.13
2013-2-11,58.5,39.2,25.6,30.2,25.4,20.4,86,61,31,30.17,30.03,12,2,12,0.00
2013-2-12,46.1,37.6,29.7,34.7,28.8,22.8,93,72,50,30.12,29.90,9,3,10,0.10
2013-2-13,53.8,40.1,32.4,38.8,32.5,30.3,95,77,45,30.00,29.92,13,4,13,0.18
2013-2-14,62.1,45.8,32.4,37.5,31.6,26.3,79,59,39,30.15,29.94,10,3,13,0.00
2013-2-15,43.6,34.7,20.7,29.3,20.4,11.3,79,58,32,30.32,30.15,12,4,14,0.00
2013-2-16,41.8,32.0,21.1,26.7,19.8,13.7,85,62,43,30.31,30.09,12,4,12,0.00
2013-2-17,65.7,48.4,29.2,33.8,26.4,14.9,64,44,30,30.09,29.80,17,8,20,0.00
2013-2-18,58.5,50.3,33.7,50.8,38.9,24.5,89,66,42,30.11,29.60,24,12,24,0.32
2013-2-19,48.1,33.8,20.7,24.3,20.7,15.1,86,61,37,30.30,30.11,14,3,14,0.00
2013-2-20,35.8,31.4,26.3,30.6,22.3,13.9,88,70,51,30.27,30.02,16,5,18,0.08
2013-2-21,35.3,32.6,29.3,33.9,30.0,24.8,95,90,81,30.03,29.66,18,6,18,0.02
2013-2-22,41.0,29.3,20.9,31.2,21.5,17.2,89,74,50,30.10,29.84,16,5,17,0.01
2013-2-23,51.8,31.6,17.8,27.7,20.9,14.9,91,68,36,30.08,29.93,9,1,9,0.00
2013-2-24,61.2,43.4,25.2,37.9,30.3,19.6,85,63,38,29.97,29.81,16,6,17,0.00
2013-2-25,41.8,38.6,34.9,36.5,33.0,29.8,92,81,64,29.86,29.43,20,7,23,0.68
2013-2-26,34.9,33.0,31.7,32.8,30.7,29.9,94,91,87,29.87,29.39,13,5,13,0.07
2013-2-27,40.7,34.0,31.9,32.5,29.1,26.3,91,82,67,30.06,29.85,14,6,15,0.16
2013-2-28,36.4,32.3,28.8,28.4,26.7,24.2,87,80,70,30.17,30.05,13,5,13,0.00
2013-3-1,33.1,29.7,26.3,25.7,22.5,19.6,83,75,63,30.24,30.13,14,5,15,0.00
2013-3-2,42.8,29.8,21.6,24.0,20.4,15.9,89,70,39,30.30,30.17,13,3,15,0.00
2013-3-3,60.1,43.0,22.0,32.9,26.8,16.7,83,55,34,30.17,29.74,17,8,17,0.00
2013-3-4,69.3,54.8,43.6,46.5,39.5,31.1,82,57,42,29.86,29.60,19,8,22,0.00
2013-3-5,46.4,38.5,30.8,34.5,25.9,18.6,91,62,40,30.29,29.86,21,8,21,0.11
2013-3-6,55.6,36.7,23.2,27.9,22.1,16.9,78,58,30,30.37,30.20,11,3,11,0.00
2013-3-7,66.1,49.2,33.8,31.7,27.9,24.7,71,47,24,30.24,30.11,16,6,16,0.00
2013-3-8,63.9,52.7,41.8,40.9,35.8,31.1,68,54,42,30.21,30.02,19,9,19,0.00
2013-3-9,68.8,58.3,51.7,56.5,46.8,36.2,95,67,48,30.02,29.66,23,11,23,1.27
2013-3-10,55.6,43.5,29.3,52.7,41.0,25.7,95,91,80,29.94,29.64,16,7,16,0.92
2013-3-11,47.7,34.0,26.8,31.9,24.8,20.5,88,71,38,30.02,29.90,15,6,15,0.00
2013-3-12,58.1,42.6,26.3,32.7,26.6,19.7,88,57,30,30.30,30.01,14,4,14,0.00
2013-3-13,58.5,40.3,24.7,27.0,20.8,16.8,76,49,24,30.44,30.30,10,2,11,0.00
2013-3-14,75.1,54.7,36.4,43.0,32.4,18.9,58,44,30,30.32,30.09,19,6,19,0.00
2013-3-15,81.7,65.9,51.5,49.9,45.4,41.9,72,50,27,30.10,29.79,22,7,22,0.00
2013-3-16,78.5,62.7,48.2,53.5,45.5,38.9,70,54,39,29.85,29.76,19,6,19,0.00
2013-3-17,48.1,43.2,40.0,43.7,40.0,37.4,95,89,71,29.86,29.66,18,6,18,0.20
2013-3-18,58.0,45.1,32.9,43.7,36.9,26.6,95,76,36,30.04,29.67,14,4,14,0.00
2013-3-19,61.6,44.7,31.1,29.1,25.2,18.6,84,51,22,30.24,30.00,16,4,16,0.00
2013-3-20,50.4,37.9,26.6,30.1,21.9,14.6,87,57,27,30.33,30.08,16,3,16,0.00
2013-3-21,42.3,34.7,31.7,32.7,23.9,12.1,93,68,30,30.08,29.78,18,8,21,0.26
2013-3-22,42.5,37.2,32.6,38.3,34.4,30.3,93,90,84,29.92,29.80,14,4,14,0.20
2013-3-23,41.2,38.2,36.0,39.2,36.3,33.8,95,93,90,29.90,29.70,12,4,14,0.05
2013-3-24,39.6,32.3,27.0,38.3,28.8,21.1,95,87,75,30.10,29.65,22,7,22,0.06
2013-3-25,35.1,28.7,23.4,25.0,21.3,17.9,84,74,58,30.31,30.08,16,6,19,0.02
2013-3-26,50.2,33.2,22.3,26.0,22.1,18.5,91,67,36,30.40,30.27,12,3,12,0.00
2013-3-27,59.9,44.5,26.1,34.7,26.2,19.8,79,52,25,30.29,30.10,17,6,17,0.00
2013-3-28,72.9,56.9,43.6,50.1,40.6,29.2,78,55,44,30.20,30.10,15,6,16,0.00
2013-3-29,69.8,58.4,50.2,56.7,51.8,44.3,94,79,61,30.19,30.08,12,4,12,0.26
2013-3-30,73.1,59.3,51.8,58.1,53.8,49.7,95,83,59,30.10,29.88,15,5,19,0.56
2013-3-31,72.0,57.2,43.2,52.8,45.7,36.3,95,70,32,29.98,29.85,14,2,14,0.08
2013-4-1,64.4,47.5,36.2,43.6,38.0,30.6,91,71,44,30.17,29.97,17,5,17,0.00
2013-4-2,42.3,37.5,35.3,36.1,33.8,29.7,92,87,62,30.24,30.15,14,6,14,0.53
2013-4-3,50.0,42.4,36.5,36.7,29.4,24.3,84,61,39,30.23,30.13,19,6,22,0.05
2013-4-4,61.9,48.2,36.5,38.9,34.0,28.8,85,61,35,30.14,30.04,12,2,14,0.00
2013-4-5,73.3,52.6,29.3,42.8,34.7,25.7,90,56,26,30.18,29.97,12,3,12,0.00
2013-4-6,77.2,63.5,54.2,48.9,44.1,35.7,63,50,35,29.97,29.79,29,10,29,0.00
2013-4-7,77.8,65.0,52.9,59.4,54.1,48.2,89,69,49,29.92,29.75,24,8,24,0.00
2013-4-8,72.9,65.7,59.4,61.0,57.9,53.9,92,76,66,29.81,29.71,21,9,21,0.35
2013-4-9,80.1,71.4,64.1,64.5,60.0,55.8,77,68,56,29.78,29.70,22,11,22,0.00
2013-4-10,73.3,44.7,35.8,63.5,41.8,34.1,95,90,68,29.89,29.72,19,6,19,2.60
2013-4-11,53.5,39.8,32.8,35.7,31.8,28.1,94,75,44,29.89,29.74,16,5,16,0.02
2013-4-12,59.8,44.2,31.3,37.9,32.3,27.6,92,65,41,30.02,29.79,15,3,15,0.00
2013-4-13,71.8,54.2,37.6,50.3,41.2,31.6,86,64,38,30.04,29.78,19,5,19,0.00
2013-4-14,80.1,68.0,57.8,53.4,49.0,45.0,66,52,37,29.79,29.55,25,11,27,0.00
2013-4-15,78.7,66.4,52.9,65.3,56.1,44.3,84,70,62,29.85,29.67,18,6,20,0.00
2013-4-16,75.1,59.4,50.2,61.6,53.5,47.1,93,82,60,29.98,29.84,11,4,11,0.00
2013-4-17,84.1,71.7,57.6,68.7,63.3,53.7,94,76,56,29.94,29.63,26,10,26,0.02
2013-4-18,72.2,48.9,37.4,65.7,44.3,27.5,96,85,68,30.00,29.55,22,8,22,3.89
2013-4-19,58.0,43.7,32.9,33.0,28.6,25.3,78,58,34,30.10,29.97,16,6,18,0.00
2013-4-20,69.1,51.3,32.9,41.7,35.1,28.3,86,58,30,30.18,30.07,12,3,12,0.00
2013-4-21,70.7,57.4,47.0,44.3,40.5,36.0,78,55,32,30.24,30.10,20,7,20,0.00
2013-4-22,73.1,59.5,44.8,47.6,42.3,37.2,77,55,37,30.17,29.89,21,6,22,0.00
2013-4-23,59.6,48.2,35.6,52.4,43.2,33.3,93,84,63,30.11,29.81,12,5,14,0.17
2013-4-24,57.2,43.1,32.8,34.9,31.2,26.9,93,67,34,30.29,30.10,12,4,12,0.01
2013-4-25,74.7,51.0,27.9,46.6,32.9,23.9,88,56,24,30.35,30.18,10,2,10,0.00
2013-4-26,57.1,51.5,47.9,49.0,45.2,36.3,93,81,50,30.31,30.08,24,9,24,0.68
2013-4-27,56.7,52.4,50.0,54.8,50.7,48.3,96,94,92,30.09,29.92,25,4,25,0.32
2013-4-28,82.1,61.0,49.7,55.1,51.0,47.6,95,73,37,30.03,29.86,9,2,9,0.00
2013-4-29,85.9,70.7,54.2,62.6,55.2,50.2,88,61,34,29.90,29.77,19,7,19,0.00
2013-4-30,83.0,71.1,56.7,57.9,52.5,44.9,84,55,28,29.87,29.80,24,8,24,0.00
2013-5-1,84.6,69.9,56.2,67.1,56.9,49.6,87,65,41,30.07,29.86,15,6,15,0.00
2013-5-2,61.6,46.6,32.8,56.7,42.7,30.7,93,86,80,30.26,30.04,13,6,14,0.43
2013-5-3,48.8,38.6,32.0,37.1,32.1,29.2,95,79,47,30.24,29.93,18,6,18,0.42
2013-5-4,47.9,39.5,34.7,38.6,35.4,32.8,93,86,70,30.00,29.83,12,3,14,0.34
2013-5-5,60.5,48.0,33.3,48.0,41.7,31.1,94,80,57,30.08,29.98,13,4,13,0.00
2013-5-6,67.7,54.1,45.4,53.8,48.4,42.6,93,82,60,30.10,30.00,9,3,10,0.00
2013-5-7,81.4,62.0,41.2,57.5,49.1,39.3,95,67,34,30.09,29.98,7,1,7,0.00
2013-5-8,81.2,66.2,52.7,62.4,54.8,47.0,84,68,42,30.07,29.90,17,4,17,0.02
2013-5-9,78.8,64.6,57.6,63.0,58.8,55.3,96,83,53,29.98,29.87,21,4,21,2.63
2013-5-10,71.1,61.8,50.8,61.7,56.6,47.6,97,84,62,30.06,29.89,12,3,12,1.39
2013-5-11,74.3,59.7,43.7,59.1,46.8,34.8,96,66,32,30.20,30.04,17,3,17,0.00
2013-5-12,70.6,54.5,36.4,49.4,38.4,30.4,88,59,28,30.27,30.13,10,2,10,0.00
2013-5-13,84.2,65.9,46.1,58.0,49.6,41.2,85,59,38,30.15,30.04,20,4,20,0.00
2013-5-14,89.3,75.1,61.6,58.7,53.8,47.3,66,50,25,30.07,29.96,17,6,17,0.00
2013-5-15,75.2,68.2,62.3,65.3,59.6,50.0,96,75,55,30.00,29.86,16,6,16,0.56
2013-5-16,70.6,63.9,60.8,64.6,61.4,58.7,96,92,77,29.89,29.83,13,3,13,0.18
2013-5-17,85.9,71.3,56.7,67.3,62.3,55.5,97,76,50,29.93,29.86,7,1,8,0.00
2013-5-18,85.0,75.3,65.2,75.0,69.0,61.4,95,81,69,29.93,29.79,15,6,15,0.00
2013-5-19,88.2,78.3,69.5,69.8,65.9,61.8,89,67,45,29.89,29.65,29,10,29,0.03
2013-5-20,79.7,69.6,62.3,71.4,64.6,59.1,94,84,70,29.83,29.67,19,5,20,0.18
2013-5-21,65.7,61.1,57.6,60.8,58.2,55.6,94,90,80,29.92,29.61,22,5,24,0.57
2013-5-22,77.6,64.7,53.1,61.0,56.4,51.7,97,77,51,29.94,29.80,14,4,15,0.00
2013-5-23,77.8,65.0,52.9,62.7,56.7,50.6,94,76,52,30.15,29.94,8,2,8,0.00
2013-5-24,80.1,66.1,56.3,64.1,57.6,52.3,88,75,55,30.23,30.14,15,5,15,0.00
2013-5-25,85.3,71.2,58.3,67.4,59.7,50.8,84,68,53,30.22,30.05,17,6,17,0.00
2013-5-26,84.4,74.4,65.2,68.3,64.5,60.7,89,72,54,30.12,29.97,20,8,22,0.00
2013-5-27,84.6,75.5,67.1,68.9,65.4,59.8,90,72,55,29.99,29.81,24,11,24,0.00
2013-5-28,84.1,75.4,70.7,67.7,64.8,61.9,81,70,54,29.88,29.77,23,12,24,0.00
2013-5-29,80.6,75.1,69.5,67.5,65.2,63.5,82,72,62,29.89,29.76,24,12,24,0.00
2013-5-30,79.0,69.8,62.1,68.9,64.2,59.5,94,83,65,29.86,29.72,26,10,26,1.40
2013-5-31,88.2,76.0,62.5,74.3,69.2,59.4,93,80,60,29.82,29.66,22,9,22,0.02
2013-6-1,79.2,69.7,59.6,70.9,62.8,54.4,95,80,56,30.00,29.65,16,5,16,0.46
2013-6-2,70.2,61.7,52.0,58.3,54.6,50.1,94,79,61,30.06,29.98,10,2,10,0.00
2013-6-3,78.3,78.3,78.3,59.8,59.8,59.8,53,53,53,29.90,29.90,4,4,4,0.00
2013-6-4,80.6,71.0,63.7,67.1,63.7,59.5,88,78,61,29.96,29.90,11,2,12,0.00
2013-6-5,80.5,71.7,63.5,68.8,64.5,59.7,94,79,62,30.01,29.87,13,4,14,0.62
2013-6-6,76.1,65.7,55.8,65.1,59.1,51.9,96,81,55,29.95,29.90,9,2,13,0.00
2013-6-7,81.5,62.1,49.3,63.5,53.4,47.1,94,76,40,29.99,29.91,9,1,9,0.00
2013-6-8,82.4,68.9,52.9,63.1,56.7,49.8,91,68,45,29.95,29.84,13,4,13,0.00
2013-6-9,86.0,74.3,63.9,65.8,61.0,58.0,84,65,41,29.92,29.85,11,4,12,0.00
2013-6-10,92.9,79.5,64.3,71.7,66.2,58.4,82,65,45,29.94,29.86,13,4,13,0.00
2013-6-11,94.9,83.0,72.7,72.2,68.2,65.7,80,63,42,30.01,29.92,16,6,16,0.00
2013-6-12,92.2,82.6,74.7,71.6,69.8,67.3,83,67,47,29.99,29.91,19,7,21,0.00
2013-6-13,93.8,80.5,70.0,71.6,68.7,64.1,91,69,42,30.04,29.94,8,2,10,0.00
2013-6-14,95.6,80.7,69.5,76.0,69.7,64.1,88,71,49,30.04,29.93,11,4,12,0.00
2013-6-15,70.2,69.4,67.9,67.9,67.4,66.1,95,93,91,29.99,29.96,8,3,8,0.00
2013-6-16,83.2,75.4,70.0,75.0,69.2,66.2,90,81,73,29.97,29.92,14,4,16,0.00
2013-6-17,73.8,68.8,64.6,70.4,66.1,62.7,95,91,84,29.98,29.87,12,3,12,0.84
2013-6-18,88.9,74.3,61.6,70.9,65.3,60.4,97,76,46,30.04,29.95,8,2,8,0.01
2013-6-19,88.9,74.9,60.1,70.6,64.5,58.1,94,72,46,30.07,29.97,13,3,13,0.00
2013-6-20,90.0,78.9,66.1,74.3,69.1,62.7,90,73,55,30.08,29.98,17,7,18,0.00
2013-6-21,92.5,82.5,74.3,75.1,72.1,70.1,88,72,54,30.09,30.00,18,7,18,0.00
2013-6-22,90.4,81.1,73.1,74.3,70.6,68.3,87,71,54,30.07,29.95,16,6,16,0.00
2013-6-23,91.4,81.4,72.7,74.2,70.5,67.2,88,71,52,30.01,29.91,20,8,22,0.00
2013-6-24,90.7,81.1,73.1,74.2,70.0,67.2,85,70,50,30.06,29.95,17,8,17,0.00
2013-6-25,88.4,81.1,74.5,72.1,69.8,68.0,83,69,54,29.99,29.85,26,9,26,0.00
2013-6-26,95.6,83.1,76.3,79.2,71.8,68.5,90,70,53,29.95,29.84,17,7,17,0.02
2013-6-27,100.1,85.1,70.6,76.7,73.9,68.0,94,71,44,29.99,29.86,8,2,8,0.00
2013-6-28,94.3,82.7,70.9,75.3,67.8,58.1,84,62,41,29.97,29.85,11,3,11,0.00
2013-6-29,87.8,75.6,59.4,62.6,56.3,51.4,90,55,30,29.92,29.82,18,4,18,0.00
2013-6-30,81.0,69.9,60.7,63.2,58.6,53.3,85,68,51,29.98,29.86,13,3,13,0.00
2013-7-1,83.0,69.9,56.9,62.6,55.5,45.2,91,64,28,30.06,29.97,12,3,13,0.00
2013-7-2,84.1,67.9,50.8,60.2,52.9,47.3,92,63,32,30.10,30.03,13,2,13,0.05
2013-7-3,88.9,70.0,52.2,60.1,53.1,47.3,91,60,26,30.12,30.01,12,2,12,0.00
2013-7-4,92.5,74.8,60.1,62.8,57.6,52.9,83,58,30,30.07,29.97,14,2,14,0.00
2013-7-5,92.3,75.3,60.1,63.8,58.8,53.6,83,60,32,30.04,29.94,10,3,11,0.00
2013-7-6,90.9,75.4,63.7,67.7,61.6,56.5,79,64,38,30.04,29.95,9,3,9,0.00
2013-7-7,93.6,78.0,69.5,68.9,64.6,60.1,80,65,35,30.06,29.99,12,4,12,0.00
2013-7-8,95.9,87.8,74.9,72.3,69.3,66.1,76,56,43,30.11,30.03,11,4,11,0.00
2013-7-9,97.0,85.1,73.1,72.1,69.6,65.4,84,62,41,30.10,29.98,19,5,19,0.00
2013-7-10,103.0,90.7,76.3,73.4,70.5,67.5,81,54,36,30.04,29.92,9,2,9,0.00
2013-7-11,98.3,84.3,69.7,76.1,68.6,61.6,91,62,38,30.03,29.94,11,3,11,0.00
2013-7-12,98.6,82.4,69.5,72.3,65.5,60.1,77,58,38,30.05,29.98,11,3,12,0.00
2013-7-13,95.0,78.7,64.8,67.3,61.3,55.8,85,57,38,30.06,29.97,10,3,10,0.00
2013-7-14,90.7,78.1,64.3,63.6,59.1,49.7,81,54,26,30.06,29.97,13,4,13,0.00
2013-7-15,93.4,78.8,69.7,72.7,66.3,60.6,89,67,43,30.18,30.06,18,4,18,0.09
2013-7-16,91.8,76.0,67.7,73.6,69.8,65.5,94,83,49,30.27,30.17,17,2,17,0.28
2013-7-17,95.9,81.5,68.4,73.3,68.8,65.2,94,69,40,30.33,30.20,11,2,11,0.00
2013-7-18,98.8,82.8,66.2,72.5,67.9,62.6,91,64,38,30.23,30.04,11,2,11,0.00
2013-7-19,99.4,82.2,70.4,72.8,68.6,65.5,87,66,36,30.07,29.94,13,4,13,0.00
2013-7-20,97.4,80.8,70.0,73.8,69.1,64.6,88,70,41,29.99,29.85,14,4,17,0.00
2013-7-21,86.4,74.5,69.3,75.7,70.1,65.4,94,86,68,29.97,29.86,10,2,10,0.49
2013-7-22,93.1,77.5,65.2,76.0,69.1,62.1,92,76,52,30.03,29.85,17,4,17,0.89
2013-7-23,99.4,85.4,70.2,77.4,73.3,67.7,93,69,48,29.94,29.82,27,5,27,0.63
2013-7-24,92.9,76.5,67.0,72.6,68.6,63.7,94,78,51,30.04,29.88,22,3,24,0.60
2013-7-25,90.4,77.2,64.4,73.2,67.8,61.8,93,75,47,30.10,30.03,8,2,8,0.00
2013-7-26,73.4,70.8,65.0,70.7,68.1,62.7,96,91,84,30.05,29.99,10,3,10,1.13
2013-7-27,85.3,72.3,62.5,68.9,63.3,58.2,97,76,46,30.08,29.97,9,2,9,0.00
2013-7-28,84.8,69.8,61.2,68.2,62.4,57.7,92,78,53,30.05,29.99,10,2,10,0.00
2013-7-29,91.1,76.8,67.1,74.9,69.3,63.4,91,78,60,30.06,29.98,15,2,16,0.02
2013-7-30,89.8,78.7,68.9,74.8,71.8,67.3,96,81,61,30.06,29.99,11,3,11,1.39
2013-7-31,90.4,80.6,71.8,76.9,72.5,68.3,95,78,58,30.08,30.01,15,2,15,0.00
2013-8-1,93.6,78.8,65.2,71.6,67.3,63.1,95,71,43,30.11,29.99,8,2,9,0.00
2013-8-2,87.8,78.4,71.8,78.2,72.3,66.7,89,82,69,30.00,29.89,12,5,12,0.03
2013-8-3,81.0,79.9,71.3,75.0,74.3,67.5,88,83,79,30.04,29.90,16,6,16,0.05
2013-8-4,77.8,74.3,72.7,72.4,70.5,69.3,92,88,80,30.12,30.01,13,5,13,0.01
2013-8-5,93.8,81.7,71.8,78.7,74.2,69.1,95,79,58,30.04,29.86,13,5,13,0.28
2013-8-6,94.0,82.8,72.2,78.9,73.8,68.3,89,75,56,29.92,29.83,12,5,12,0.00
2013-8-7,92.0,80.5,73.8,80.6,74.3,70.8,94,82,62,29.97,29.84,13,4,13,0.22
2013-8-8,85.3,75.4,68.0,76.2,70.8,66.4,96,86,64,29.99,29.87,14,4,14,3.62
2013-8-9,90.7,76.2,69.8,73.9,70.4,67.7,95,83,58,30.05,29.92,14,3,14,0.20
2013-8-10,86.8,75.7,67.3,73.2,69.0,65.5,94,81,61,30.12,30.05,11,4,11,0.00
2013-8-11,93.2,78.6,68.8,75.3,70.7,66.6,94,78,53,30.11,30.02,7,2,7,0.00
2013-8-12,87.7,75.9,70.6,76.1,71.1,67.8,94,85,66,30.10,29.98,16,2,16,0.47
2013-8-13,83.5,72.0,66.2,75.2,69.3,64.1,95,91,72,30.08,29.99,11,1,15,0.60
2013-8-14,81.5,70.6,62.3,65.3,61.7,57.4,93,75,51,30.16,30.07,11,3,11,0.01
2013-8-15,85.0,67.6,54.9,63.1,57.5,52.6,93,72,41,30.14,30.03,11,2,11,0.00
2013-8-16,83.7,69.2,60.5,63.5,59.2,56.3,87,72,48,30.14,30.04,8,2,8,0.00
2013-8-17,83.2,68.1,54.4,64.3,59.3,52.4,94,75,48,30.16,30.07,10,1,10,0.00
2013-8-18,88.4,72.4,59.0,67.3,62.2,57.1,95,73,43,30.16,30.06,7,2,7,0.00
2013-8-19,92.5,74.0,60.5,67.8,62.6,58.1,94,71,39,30.14,30.02,8,1,8,0.00
2013-8-20,90.9,75.1,61.4,68.7,63.6,58.7,94,70,41,30.11,30.03,9,2,9,0.00
2013-8-21,96.3,77.7,63.7,70.0,65.7,60.1,90,69,41,30.13,30.06,13,3,13,0.00
2013-8-22,97.4,76.8,65.7,73.9,67.3,62.0,90,75,45,30.14,30.03,10,2,10,0.00
2013-8-23,95.2,80.3,65.2,74.0,68.3,62.2,94,70,42,30.11,30.02,7,2,7,0.00
2013-8-24,93.4,80.5,69.8,74.9,70.0,66.1,91,72,48,30.17,30.06,11,3,11,0.00
2013-8-25,96.1,81.2,70.0,74.5,70.6,66.6,91,72,46,30.23,30.14,8,3,8,0.00
2013-8-26,96.5,81.2,69.7,74.3,70.1,65.1,88,71,48,30.23,30.12,10,3,10,0.00
2013-8-27,93.6,80.1,65.7,71.6,66.9,62.4,91,67,42,30.15,30.05,10,2,10,0.00
2013-8-28,96.1,80.1,66.1,73.1,68.3,63.0,91,70,45,30.11,30.04,11,2,12,0.00
2013-8-29,100.1,82.7,70.0,74.8,69.4,65.4,89,67,39,30.10,30.02,9,2,9,0.00
2013-8-30,99.0,77.8,70.7,73.3,69.0,66.5,88,76,39,30.03,29.90,12,1,12,0.00
2013-8-31,102.4,84.9,71.8,74.4,70.1,66.5,85,64,38,29.95,29.84,11,3,11,0.00
2013-9-1,96.5,80.2,71.6,75.6,69.8,67.0,89,72,46,29.94,29.83,13,3,13,0.00
2013-9-2,89.6,77.3,65.5,68.8,65.3,60.2,92,69,45,30.03,29.93,10,2,10,0.00
2013-9-3,92.2,74.4,57.2,68.1,61.0,55.0,93,67,36,30.09,30.00,8,1,8,0.00
2013-9-4,95.2,78.8,59.2,67.9,62.7,56.9,93,61,37,30.17,30.06,7,2,7,0.00
2013-9-5,94.9,76.0,61.0,67.7,62.2,56.3,89,65,40,30.20,30.11,8,2,8,0.00
2013-9-6,95.8,76.9,60.1,68.2,62.2,56.3,90,64,36,30.16,30.03,8,2,8,0.00
2013-9-7,74.0,68.9,67.0,66.4,62.3,60.7,83,79,76,30.04,29.98,4,2,4,0.00
2013-9-8,99.0,81.8,67.3,71.0,66.1,61.2,82,62,36,30.01,29.91,10,2,10,0.00
2013-9-9,97.4,81.1,65.3,69.0,64.4,60.2,85,60,33,30.04,29.95,12,2,14,0.00
2013-9-10,97.6,79.6,66.1,69.8,63.3,59.1,82,61,32,30.15,30.01,15,2,15,0.00
2013-9-11,99.7,80.7,66.1,71.0,66.3,61.6,88,65,36,30.18,30.06,7,1,7,0.00
2013-9-12,94.3,82.1,68.6,71.6,68.5,63.7,91,66,47,30.13,30.02,7,2,10,0.00
2013-9-28,65.5,61.1,59.9,62.8,59.4,58.5,95,94,91,30.07,29.97,10,3,10,0.05
2013-9-29,81.7,64.4,54.5,60.0,56.1,52.0,95,78,42,30.08,29.95,10,2,10,0.01
2013-9-30,68.6,62.0,56.2,64.8,59.3,52.5,95,91,83,29.97,29.89,6,1,6,0.00
2013-10-1,87.8,72.9,61.6,69.9,65.7,59.6,95,80,52,30.01,29.90,12,4,12,0.00
2013-10-2,81.2,69.9,65.5,68.4,65.9,63.5,94,88,63,30.00,29.93,7,3,8,0.00
2013-10-3,85.0,75.6,71.1,69.0,66.7,65.9,85,75,57,29.96,29.86,16,8,17,0.00
2013-10-4,86.6,75.6,69.7,71.2,67.2,63.0,90,76,55,29.95,29.86,19,8,19,0.00
2013-10-5,72.5,56.6,45.0,68.6,53.5,42.6,94,89,71,30.10,29.90,14,3,14,0.57
2013-10-6,65.2,57.4,45.7,46.9,44.4,41.4,86,63,48,30.04,29.97,14,4,14,0.00
2013-10-7,78.1,55.0,38.5,50.5,43.6,36.4,93,70,33,30.17,30.01,9,1,9,0.00
2013-10-8,74.9,53.6,43.2,52.1,45.5,40.5,94,77,40,30.16,30.05,15,2,15,0.00
2013-10-9,81.5,66.6,50.6,53.6,48.7,43.5,84,57,29,30.09,30.04,8,2,9,0.00
2013-10-10,81.0,63.5,47.5,60.5,51.7,43.8,92,69,45,30.11,29.98,11,4,12,0.00
2013-10-11,75.6,71.9,69.1,66.6,64.7,63.5,83,78,72,29.90,29.86,16,7,17,0.00
2013-10-12,70.6,64.1,59.0,63.1,59.6,53.9,95,86,71,30.17,29.90,13,3,13,0.56
2013-10-13,76.3,64.2,57.1,58.2,52.3,48.4,82,66,49,30.33,30.16,12,4,13,0.01
2013-10-14,63.4,61.7,60.7,59.5,58.3,57.3,91,88,87,30.01,29.95,13,10,13,0.13
2013-10-15,64.4,59.1,51.7,62.5,55.4,47.9,93,87,77,30.04,29.89,9,4,9,0.15
2013-10-16,63.5,57.5,50.9,45.6,44.4,43.4,76,62,51,30.07,30.01,7,3,7,0.00
2013-10-17,71.3,55.9,41.4,46.8,42.4,37.8,89,64,40,30.07,29.97,10,1,10,0.00
2013-10-18,65.5,48.1,39.1,51.7,43.2,36.5,93,84,58,30.07,29.97,10,2,10,0.31
2013-10-19,63.0,47.0,36.0,42.8,37.4,33.4,94,73,38,30.14,30.01,12,3,12,0.00
2013-10-20,69.3,62.6,51.7,44.7,42.7,38.6,72,50,33,30.01,29.88,17,7,17,0.00
2013-10-21,58.3,42.5,34.2,40.3,35.0,30.7,88,76,51,30.09,30.04,3,0,3,0.00
2013-10-22,69.7,57.5,32.9,47.9,41.8,30.6,94,58,40,30.08,29.94,16,4,16,0.00
2013-10-23,69.3,47.6,32.8,42.3,37.0,29.6,92,70,34,30.16,30.00,9,1,9,0.00
2013-10-24,56.9,44.6,33.5,39.1,34.3,26.8,91,70,41,30.38,30.07,14,3,16,0.00
2013-10-25,64.1,45.2,31.3,34.6,30.6,26.8,86,60,29,30.45,30.19,14,3,14,0.00
2013-10-26,66.1,53.5,44.1,53.9,44.6,33.6,82,72,63,30.19,30.09,15,4,15,0.00
2013-10-27,47.3,42.8,38.0,42.8,39.4,35.3,90,88,82,30.09,30.07,1,0,2,0.00
2013-10-28,65.2,58.3,55.6,53.4,51.7,50.1,88,79,64,30.13,30.08,8,4,8,0.00
2013-10-29,68.8,66.0,56.9,63.8,62.0,53.4,92,87,82,30.12,29.97,17,8,17,0.02
2013-10-30,68.0,65.3,61.9,63.7,62.1,59.4,94,90,86,30.04,29.81,18,8,19,2.33
2013-10-31,72.0,55.7,46.8,63.5,52.5,44.1,94,89,47,29.81,29.53,17,4,17,0.40
2013-11-1,70.2,54.1,40.1,50.8,43.1,35.6,93,70,35,30.01,29.75,13,2,13,0.01
2013-11-2,58.9,46.7,33.1,41.7,37.0,29.6,89,71,46,30.22,30.00,15,3,15,0.00
2013-11-3,63.7,47.2,31.9,41.8,36.8,29.1,93,70,39,30.19,29.99,27,8,27,0.00
2013-11-4,60.8,54.4,50.6,51.8,46.5,40.8,92,75,64,30.13,29.99,25,9,25,0.00
2013-11-5,62.5,60.2,53.8,59.6,57.4,51.5,93,90,89,30.12,29.93,17,10,17,0.75
2013-11-6,62.1,42.8,29.9,59.3,38.8,27.4,93,86,72,30.32,29.91,16,5,16,0.54
2013-11-7,64.6,43.6,26.3,46.2,33.2,24.0,93,71,32,30.43,30.31,9,2,9,0.01
2013-11-9,65.9,57.8,47.2,46.6,42.9,40.3,83,59,41,30.26,30.14,12,2,12,0.00
2013-11-10,74.9,55.0,43.2,47.0,42.6,37.2,87,66,34,30.37,30.24,12,2,12,0.00
2013-11-11,70.4,55.6,40.7,53.3,47.0,36.9,87,73,53,30.39,30.17,16,4,17,0.00
2013-11-12,43.9,32.9,20.5,37.1,20.4,14.0,87,62,36,30.73,30.39,18,5,18,0.00
2013-11-13,52.9,35.5,18.5,23.3,19.2,13.1,85,55,28,30.64,30.28,13,5,13,0.00
2013-11-14,58.9,42.4,29.0,39.3,24.3,19.3,70,50,33,30.28,30.01,16,8,17,0.00
2013-11-15,61.9,50.7,43.6,47.4,40.6,31.8,86,69,57,30.02,29.83,16,7,16,0.00
2013-11-16,69.1,66.4,64.4,63.4,60.2,57.9,84,80,74,29.65,29.61,24,12,24,0.00
2013-11-17,72.7,69.2,50.8,64.5,57.6,23.6,82,69,28,30.07,29.55,29,11,29,0.00
2013-11-18,76.3,51.7,32.6,39.2,28.8,22.8,79,46,18,30.25,30.04,8,2,8,0.00
2013-11-19,66.4,50.4,40.0,31.4,26.5,21.0,60,41,23,30.23,30.03,14,7,14,0.00
2013-11-20,65.3,52.7,44.1,40.6,29.1,17.4,56,41,28,30.03,29.89,15,9,15,0.01
2013-11-21,56.2,50.4,49.0,47.0,45.5,40.0,91,84,55,30.00,29.96,12,7,12,0.48
2013-11-22,32.8,32.2,31.7,28.4,28.1,27.8,86,84,82,30.45,30.44,9,4,10,0.00
2013-11-27,22.0,21.4,20.7,13.5,13.2,12.9,72,70,69,30.27,30.26,0,0,0,0.00